Henrico, NC

11:44 PM EDT on October 01, 2014 (GMT -0400)
Lake Gaston | Change Station
CLOSE
Current Station
Personal Weather Station
Location: Littleton, NC
Elevation: 220 ft
Nearby Weather Stations

Elev 220 ft 36.48 °N, 77.93 °W | Updated 3 minutes ago

Mostly Cloudy
Mostly Cloudy
61.4 °F
Feels Like 61.4 °F
N
0.0
Wind Variable Wind from WSW
Gusts 0.0 mph

Today
High -- | Low -- °F
--% Chance of Precip.
Yesterday
High -- | Low -- °F
Precip. -- in
7:06 AM 6:54 PM
First Quarter, 54% visible
Pressure 29.98 in
Visibility 1.0 miles
Clouds Mostly Cloudy 100 ft
Mostly Cloudy 9000 ft
Dew Point 60 °F
Humidity 95%
Rainfall 0.01 in
Snow Depth Not available.
UV 0 out of 12
Pollen 4.40 out of 12
Air Quality Not available.
Flu Activity Not available.
METAR KAVC 010335Z AUTO 00000KT 1SM BR BKN001 BKN090 16/16 A2998 RMK AO2 VIS 1/2V4

More Conditions Fewer Conditions

Pressure 29.98 in
Visibility 1.0 miles
Clouds Mostly Cloudy 100 ft
Mostly Cloudy 9000 ft
Dew Point 60 °F
Humidity 95%
Rainfall 0.01 in
Snow Depth Not available.
UV 0 out of 12
Pollen 4.40 out of 12
Air Quality Not available.
Flu Activity Not available.
METAR KAVC 010335Z AUTO 00000KT 1SM BR BKN001 BKN090 16/16 A2998 RMK AO2 VIS 1/2V4

More Conditions Fewer Conditions

10-Day Weather Forecast

Almanac

Astronomy

Oct. 01, 2014 Rise Set
Actual Time 7:06 AM EDT 6:54 PM EDT
Civil Twilight 6:40 AM EDT 7:20 PM EDT
Nautical Twilight 6:11 AM EDT 7:50 PM EDT
Astronomical Twilight 5:40 AM EDT 8:20 PM EDT
Moon 1:58 PM EDT (10/1) No Moon Set
Length of Visible Light 12h 39m
Length of Day
11h 48m
Tomorrow will be 2m 18s shorter.
First Quarter, 54% of the Moon is Illuminated
Today
First Quarter
Oct 8
Full
Oct 15
Last Quarter
Oct 23
New
Oct 30
First Quarter

Today's Extremes

State Highs State Lows

Community

WunderPhotos

Upload Photos

1,758,170 photos uploaded!

Nearby

Snow Depth

Station Depth Elevation
No new snow has been reported.

Earthquake Activity

City Distance Mag. Time & Date
No recent earthquake activity has been reported nearby.
Minimum magnitude displayed is 2.5.

Coastal Water Temperatures

Place Temperature
No Stations Reporting

Nearby Weather Stations